createdAt,value
2024-04-23T00:00:35.072Z,991.00
2024-04-23T00:01:35.130Z,992.00
2024-04-23T00:02:35.124Z,991.00
2024-04-23T00:03:35.143Z,992.00
2024-04-23T00:04:35.216Z,996.00
2024-04-23T00:05:35.184Z,995.00
2024-04-23T00:06:35.254Z,996.00
2024-04-23T00:07:35.271Z,995.00
2024-04-23T00:08:35.330Z,994.00
2024-04-23T00:09:35.322Z,993.00
2024-04-23T00:10:35.331Z,993.00
2024-04-23T00:11:56.401Z,993.00
2024-04-23T00:12:35.335Z,992.00
2024-04-23T00:13:35.408Z,991.00
2024-04-23T00:14:35.377Z,991.00
2024-04-23T00:15:35.353Z,991.00
2024-04-23T00:16:35.378Z,991.00
2024-04-23T00:17:35.411Z,990.00
2024-04-23T00:18:35.428Z,989.00
2024-04-23T00:19:35.483Z,986.00
2024-04-23T00:20:35.359Z,985.00
2024-04-23T00:21:36.334Z,985.00
2024-04-23T00:22:35.399Z,989.00
2024-04-23T00:23:35.355Z,988.00
2024-04-23T00:24:35.359Z,988.00
2024-04-23T00:25:35.395Z,988.00
2024-04-23T00:26:35.367Z,989.00
2024-04-23T00:27:35.366Z,988.00
2024-04-23T00:28:35.405Z,990.00
2024-04-23T00:29:35.373Z,991.00
2024-04-23T00:30:35.382Z,990.00
2024-04-23T00:31:35.429Z,989.00
2024-04-23T00:32:35.530Z,988.00
2024-04-23T00:33:35.389Z,985.00
2024-04-23T00:34:35.403Z,986.00
2024-04-23T00:35:35.389Z,985.00
2024-04-23T00:36:35.401Z,984.00
2024-04-23T00:37:35.394Z,984.00
2024-04-23T00:38:35.386Z,984.00
2024-04-23T00:39:35.387Z,984.00
2024-04-23T00:40:35.402Z,982.00
2024-04-23T00:41:39.230Z,979.00
2024-04-23T00:42:35.406Z,979.00
2024-04-23T00:43:35.386Z,980.00
2024-04-23T00:44:35.392Z,983.00
2024-04-23T00:45:35.397Z,984.00
2024-04-23T00:46:35.398Z,985.00
2024-04-23T00:47:35.472Z,986.00
2024-04-23T00:48:35.490Z,987.00
2024-04-23T00:49:35.411Z,987.00
2024-04-23T00:50:35.410Z,989.00
2024-04-23T00:51:35.392Z,989.00
2024-04-23T00:52:35.417Z,988.00
2024-04-23T00:53:35.417Z,989.00
2024-04-23T00:54:35.422Z,989.00
2024-04-23T00:55:35.465Z,988.00
2024-04-23T00:56:35.433Z,984.00
2024-04-23T00:57:35.410Z,983.00
2024-04-23T00:58:35.445Z,982.00
2024-04-23T00:59:35.419Z,978.00
2024-04-23T01:00:35.519Z,978.00
2024-04-23T01:01:35.478Z,979.00
2024-04-23T01:02:35.480Z,977.00
2024-04-23T01:03:36.405Z,976.00
2024-04-23T01:04:35.431Z,976.00
2024-04-23T01:05:35.465Z,977.00
2024-04-23T01:06:35.432Z,979.00
2024-04-23T01:07:35.478Z,978.00
2024-04-23T01:08:35.437Z,978.00
2024-04-23T01:09:35.423Z,976.00
2024-04-23T01:10:35.446Z,976.00
2024-04-23T01:11:35.468Z,977.00
2024-04-23T01:12:35.436Z,974.00
2024-04-23T01:13:36.367Z,972.00
2024-04-23T01:14:35.470Z,973.00
2024-04-23T01:15:35.454Z,973.00
2024-04-23T01:16:35.511Z,971.00
2024-04-23T01:17:35.681Z,969.00
2024-04-23T01:18:35.491Z,971.00
2024-04-23T01:19:35.477Z,970.00
2024-04-23T01:20:35.468Z,969.00
2024-04-23T01:21:35.437Z,968.00
2024-04-23T01:22:35.528Z,970.00
2024-04-23T01:23:35.445Z,971.00
2024-04-23T01:24:35.450Z,970.00
2024-04-23T01:25:35.513Z,970.00
2024-04-23T01:26:35.456Z,967.00
2024-04-23T01:27:35.470Z,969.00
2024-04-23T01:28:35.501Z,971.00
2024-04-23T01:29:35.453Z,972.00
2024-04-23T01:30:35.457Z,970.00
2024-04-23T01:31:35.470Z,969.00
2024-04-23T01:32:35.504Z,968.00
2024-04-23T01:33:35.657Z,970.00
2024-04-23T01:34:35.568Z,969.00
2024-04-23T01:35:35.479Z,970.00
2024-04-23T01:36:35.468Z,969.00
2024-04-23T01:37:35.505Z,971.00
2024-04-23T01:38:35.479Z,969.00
2024-04-23T01:39:35.526Z,968.00
2024-04-23T01:40:35.567Z,971.00
2024-04-23T01:41:35.493Z,972.00
2024-04-23T01:42:35.497Z,972.00
2024-04-23T01:43:35.584Z,976.00
2024-04-23T01:44:35.548Z,975.00
2024-04-23T01:45:35.566Z,976.00
2024-04-23T01:46:35.620Z,977.00
2024-04-23T01:47:35.731Z,983.00
2024-04-23T01:48:35.680Z,985.00
2024-04-23T01:49:35.708Z,985.00
2024-04-23T01:50:35.674Z,986.00
2024-04-23T01:51:35.665Z,986.00
2024-04-23T01:52:36.394Z,990.00
2024-04-23T01:53:35.711Z,991.00
2024-04-23T01:54:35.723Z,988.00
2024-04-23T01:55:35.766Z,987.00
2024-04-23T01:56:35.732Z,986.00
2024-04-23T01:57:35.734Z,984.00
2024-04-23T01:58:35.746Z,986.00
2024-04-23T01:59:35.786Z,985.00
2024-04-23T02:00:35.798Z,988.00
2024-04-23T02:01:35.839Z,984.00
2024-04-23T02:02:35.902Z,979.00
2024-04-23T02:03:35.909Z,978.00
2024-04-23T02:04:35.975Z,980.00
2024-04-23T02:05:36.013Z,979.00
2024-04-23T02:06:36.856Z,975.00
2024-04-23T02:07:36.111Z,975.00
2024-04-23T02:08:36.095Z,976.00
2024-04-23T02:09:36.137Z,975.00
2024-04-23T02:10:36.225Z,974.00
2024-04-23T02:11:36.267Z,972.00
2024-04-23T02:12:36.285Z,972.00
2024-04-23T02:13:36.375Z,973.00
2024-04-23T02:14:36.403Z,972.00
2024-04-23T02:15:36.488Z,975.00
2024-04-23T02:16:36.545Z,974.00
2024-04-23T02:17:36.699Z,976.00
2024-04-23T02:18:36.724Z,977.00
2024-04-23T02:19:36.766Z,978.00
2024-04-23T02:20:36.835Z,979.00
2024-04-23T02:21:36.865Z,977.00
2024-04-23T02:22:36.956Z,975.00
2024-04-23T02:23:37.005Z,974.00
2024-04-23T02:24:37.091Z,974.00
2024-04-23T02:25:37.184Z,970.00
2024-04-23T02:26:37.206Z,966.00
2024-04-23T02:27:37.266Z,963.00
2024-04-23T02:28:37.395Z,963.00
2024-04-23T02:29:37.402Z,960.00
2024-04-23T02:30:37.471Z,958.00
2024-04-23T02:31:37.532Z,957.00
2024-04-23T02:32:37.606Z,959.00
2024-04-23T02:33:37.726Z,961.00
2024-04-23T02:34:37.690Z,962.00
2024-04-23T02:35:37.707Z,964.00
2024-04-23T02:36:37.780Z,964.00
2024-04-23T02:37:37.839Z,965.00
2024-04-23T02:38:37.859Z,965.00
2024-04-23T02:39:37.908Z,965.00
2024-04-23T02:40:37.957Z,967.00
2024-04-23T02:41:38.016Z,969.00
2024-04-23T02:42:38.027Z,970.00
2024-04-23T02:43:38.097Z,967.00
2024-04-23T02:44:38.103Z,967.00
2024-04-23T02:45:38.146Z,968.00
2024-04-23T02:46:38.204Z,965.00
2024-04-23T02:47:38.245Z,966.00
2024-04-23T02:48:38.249Z,967.00
2024-04-23T02:49:38.312Z,965.00
2024-04-23T02:50:38.321Z,964.00
2024-04-23T02:51:38.432Z,964.00
2024-04-23T02:52:38.874Z,963.00
2024-04-23T02:53:38.494Z,964.00
2024-04-23T02:54:38.493Z,964.00
2024-04-23T02:55:38.554Z,962.00
2024-04-23T02:56:38.567Z,958.00
2024-04-23T02:57:38.605Z,960.00
2024-04-23T02:58:38.732Z,962.00
2024-04-23T02:59:38.690Z,961.00
2024-04-23T03:00:38.791Z,960.00
2024-04-23T03:01:38.806Z,960.00
2024-04-23T03:02:38.846Z,965.00
2024-04-23T03:03:38.909Z,966.00
2024-04-23T03:04:38.947Z,967.00
2024-04-23T03:05:38.949Z,967.00
2024-04-23T03:06:39.015Z,965.00
2024-04-23T03:07:39.091Z,964.00
2024-04-23T03:08:39.059Z,960.00
2024-04-23T03:09:39.099Z,958.00
2024-04-23T03:10:39.180Z,957.00
2024-04-23T03:11:39.201Z,957.00
2024-04-23T03:12:39.233Z,960.00
2024-04-23T03:13:39.282Z,961.00
2024-04-23T03:14:39.304Z,962.00
2024-04-23T03:15:39.335Z,963.00
2024-04-23T03:16:39.389Z,964.00
2024-04-23T03:17:39.376Z,962.00
2024-04-23T03:18:39.439Z,962.00
2024-04-23T03:19:39.454Z,963.00
2024-04-23T03:20:39.472Z,965.00
2024-04-23T03:21:39.483Z,963.00
2024-04-23T03:22:39.541Z,963.00
2024-04-23T03:23:39.532Z,960.00
2024-04-23T03:24:39.632Z,960.00
2024-04-23T03:25:40.899Z,957.00
2024-04-23T03:26:39.624Z,956.00
2024-04-23T03:27:39.655Z,956.00
2024-04-23T03:28:39.706Z,954.00
2024-04-23T03:29:39.684Z,955.00
2024-04-23T03:30:39.783Z,957.00
2024-04-23T03:31:39.778Z,958.00
2024-04-23T03:32:39.922Z,957.00
2024-04-23T03:33:39.804Z,959.00
2024-04-23T03:34:39.826Z,958.00
2024-04-23T03:35:39.886Z,953.00
2024-04-23T03:36:39.884Z,947.00
2024-04-23T03:37:39.933Z,948.00
2024-04-23T03:38:39.947Z,951.00
2024-04-23T03:39:39.919Z,952.00
2024-04-23T03:40:39.986Z,953.00
2024-04-23T03:41:39.965Z,951.00
2024-04-23T03:42:39.977Z,949.00
2024-04-23T03:43:40.089Z,949.00
2024-04-23T03:44:41.209Z,948.00
2024-04-23T03:45:40.052Z,950.00
2024-04-23T03:46:40.064Z,949.00
2024-04-23T03:47:40.145Z,950.00
2024-04-23T03:48:40.124Z,950.00
2024-04-23T03:49:40.171Z,950.00
2024-04-23T03:50:40.119Z,950.00
2024-04-23T03:51:40.148Z,951.00
2024-04-23T03:52:40.169Z,952.00
2024-04-23T03:53:40.151Z,949.00
2024-04-23T03:54:40.156Z,950.00
2024-04-23T03:55:45.268Z,950.00
2024-04-23T03:56:40.207Z,950.00
2024-04-23T03:57:40.191Z,948.00
2024-04-23T03:58:40.201Z,946.00
2024-04-23T03:59:40.191Z,948.00
2024-04-23T04:00:40.317Z,949.00
2024-04-23T04:01:40.340Z,949.00
2024-04-23T04:02:40.373Z,950.00
2024-04-23T04:03:40.279Z,948.00
2024-04-23T04:04:40.241Z,950.00
2024-04-23T04:05:40.234Z,950.00
2024-04-23T04:06:40.210Z,947.00
2024-04-23T04:07:40.221Z,947.00
2024-04-23T04:08:40.208Z,945.00
2024-04-23T04:09:40.221Z,947.00
2024-04-23T04:10:40.274Z,946.00
2024-04-23T04:11:40.297Z,947.00
2024-04-23T04:12:40.255Z,946.00
2024-04-23T04:13:40.251Z,947.00
2024-04-23T04:14:40.228Z,949.00
2024-04-23T04:15:40.270Z,949.00
2024-04-23T04:16:40.304Z,950.00
2024-04-23T04:17:40.542Z,949.00
2024-04-23T04:18:40.258Z,953.00
2024-04-23T04:19:40.244Z,952.00
2024-04-23T04:20:40.242Z,953.00
2024-04-23T04:21:40.238Z,952.00
2024-04-23T04:22:40.281Z,954.00
2024-04-23T04:23:40.259Z,951.00
2024-04-23T04:24:40.257Z,949.00
2024-04-23T04:25:40.326Z,950.00
2024-04-23T04:26:40.260Z,946.00
2024-04-23T04:27:40.241Z,949.00
2024-04-23T04:28:40.313Z,950.00
2024-04-23T04:29:40.249Z,948.00
2024-04-23T04:30:40.259Z,945.00
2024-04-23T04:31:40.270Z,941.00
2024-04-23T04:32:40.348Z,940.00
2024-04-23T04:33:40.274Z,936.00
2024-04-23T04:34:40.302Z,934.00
2024-04-23T04:35:40.294Z,932.00
2024-04-23T04:36:40.262Z,933.00
2024-04-23T04:37:47.541Z,942.00
2024-04-23T04:38:47.523Z,935.00
2024-04-23T04:39:47.534Z,929.00
2024-04-23T04:40:47.557Z,927.00
2024-04-23T04:41:47.521Z,924.00
2024-04-23T04:42:47.542Z,924.00
2024-04-23T04:43:47.541Z,924.00
2024-04-23T04:44:47.527Z,924.00
2024-04-23T04:45:47.539Z,922.00
2024-04-23T04:46:47.586Z,922.00
2024-04-23T04:47:47.762Z,920.00
2024-04-23T04:48:47.728Z,919.00
2024-04-23T04:49:47.558Z,917.00
2024-04-23T04:50:47.540Z,917.00
2024-04-23T04:51:47.544Z,917.00
2024-04-23T04:52:47.736Z,920.00
2024-04-23T04:53:47.554Z,923.00
2024-04-23T04:54:47.539Z,922.00
2024-04-23T04:55:47.560Z,923.00
2024-04-23T04:56:47.538Z,924.00
2024-04-23T04:57:47.541Z,925.00
2024-04-23T04:58:47.667Z,928.00
2024-04-23T04:59:47.529Z,932.00
2024-04-23T05:00:47.555Z,934.00
2024-04-23T05:01:47.571Z,936.00
2024-04-23T05:02:47.628Z,936.00
2024-04-23T05:03:47.573Z,935.00
2024-04-23T05:04:47.542Z,937.00
2024-04-23T05:05:47.537Z,938.00
2024-04-23T05:06:47.542Z,936.00
2024-04-23T05:07:47.575Z,934.00
2024-04-23T05:08:47.553Z,935.00
2024-04-23T05:09:47.534Z,934.00
2024-04-23T05:10:47.549Z,934.00
2024-04-23T05:11:47.552Z,932.00
2024-04-23T05:12:47.553Z,931.00
2024-04-23T05:13:47.547Z,933.00
2024-04-23T05:14:47.560Z,934.00
2024-04-23T05:15:47.560Z,935.00
2024-04-23T05:16:47.578Z,934.00
2024-04-23T05:17:47.639Z,934.00
2024-04-23T05:18:47.553Z,933.00
2024-04-23T05:19:47.680Z,935.00
2024-04-23T05:20:47.576Z,933.00
2024-04-23T05:21:47.552Z,935.00
2024-04-23T05:22:47.604Z,935.00
2024-04-23T05:23:47.559Z,940.00
2024-04-23T05:24:47.559Z,943.00
2024-04-23T05:25:47.611Z,944.00
2024-04-23T05:26:47.564Z,946.00
2024-04-23T05:27:47.554Z,950.00
2024-04-23T05:28:47.587Z,955.00
2024-04-23T05:29:47.566Z,961.00
2024-04-23T05:30:47.626Z,966.00
2024-04-23T05:31:47.728Z,970.00
2024-04-23T05:32:47.826Z,970.00
2024-04-23T05:33:47.968Z,972.00
2024-04-23T05:34:47.899Z,982.00
2024-04-23T05:35:47.957Z,993.00
2024-04-23T05:36:48.016Z,1053.00
2024-04-23T05:37:48.107Z,1048.00
2024-04-23T05:38:48.161Z,1042.00
2024-04-23T05:39:48.239Z,1035.00
2024-04-23T05:40:48.396Z,1040.00
2024-04-23T05:41:48.360Z,1043.00
2024-04-23T05:42:48.438Z,1047.00
2024-04-23T05:43:48.554Z,1045.00
2024-04-23T05:44:48.574Z,1061.00
2024-04-23T05:45:48.633Z,1095.00
2024-04-23T05:46:48.775Z,1100.00
2024-04-23T05:47:48.818Z,1149.00
2024-04-23T05:48:48.806Z,1150.00
2024-04-23T05:49:48.963Z,1169.00
2024-04-23T05:50:48.875Z,1239.00
2024-04-23T05:51:48.934Z,1001.00
2024-04-23T05:52:48.973Z,862.00
2024-04-23T05:53:48.997Z,811.00
2024-04-23T05:54:49.062Z,727.00
2024-04-23T05:55:49.542Z,777.00
2024-04-23T05:56:49.139Z,730.00
2024-04-23T05:57:49.203Z,708.00
2024-04-23T05:58:49.218Z,680.00
2024-04-23T05:59:49.268Z,668.00
2024-04-23T06:00:49.303Z,670.00
2024-04-23T06:01:49.559Z,1027.00
2024-04-23T06:02:49.335Z,1026.00
2024-04-23T06:03:49.344Z,1016.00
2024-04-23T06:04:49.456Z,954.00
2024-04-23T06:05:49.492Z,937.00
2024-04-23T06:06:49.516Z,933.00
2024-04-23T06:07:49.661Z,917.00
2024-04-23T06:08:49.648Z,897.00
2024-04-23T06:09:49.742Z,883.00
2024-04-23T06:10:49.881Z,869.00
2024-04-23T06:11:49.911Z,859.00
2024-04-23T06:12:51.178Z,852.00
2024-04-23T06:13:50.085Z,843.00
2024-04-23T06:14:50.081Z,834.00
2024-04-23T06:15:50.258Z,806.00
2024-04-23T06:16:50.249Z,791.00
2024-04-23T06:17:50.423Z,780.00
2024-04-23T06:18:50.475Z,767.00
2024-04-23T06:19:50.431Z,753.00
2024-04-23T06:20:50.457Z,743.00
2024-04-23T06:21:50.501Z,735.00
2024-04-23T06:22:50.727Z,731.00
2024-04-23T06:23:50.582Z,723.00
2024-04-23T06:24:50.632Z,713.00
2024-04-23T06:25:50.692Z,704.00
2024-04-23T06:26:50.697Z,697.00
2024-04-23T06:27:50.711Z,688.00
2024-04-23T06:28:50.752Z,681.00
2024-04-23T06:29:50.750Z,677.00
2024-04-23T06:30:50.750Z,670.00
2024-04-23T06:31:50.844Z,661.00
2024-04-23T06:32:50.859Z,655.00
2024-04-23T06:33:50.818Z,649.00
2024-04-23T06:34:50.926Z,644.00
2024-04-23T06:35:50.888Z,640.00
2024-04-23T06:36:50.881Z,635.00
2024-04-23T06:37:50.915Z,632.00
2024-04-23T06:38:50.916Z,627.00
2024-04-23T06:39:50.931Z,626.00
2024-04-23T06:40:50.992Z,623.00
2024-04-23T06:41:56.012Z,619.00
2024-04-23T06:42:57.611Z,616.00
2024-04-23T06:43:52.030Z,614.00
2024-04-23T06:44:56.000Z,609.00
2024-04-23T06:45:57.410Z,604.00
2024-04-23T06:46:52.010Z,600.00
2024-04-23T06:47:51.050Z,597.00
2024-04-23T06:48:50.988Z,596.00
2024-04-23T06:49:51.042Z,593.00
2024-04-23T06:50:50.992Z,590.00
2024-04-23T06:51:51.008Z,588.00
2024-04-23T06:52:51.030Z,586.00
2024-04-23T06:53:51.024Z,583.00
2024-04-23T06:54:51.000Z,577.00
2024-04-23T06:55:51.010Z,571.00
2024-04-23T06:56:50.998Z,570.00
2024-04-23T06:57:51.003Z,567.00
2024-04-23T06:58:51.058Z,564.00
2024-04-23T06:59:51.031Z,565.00
2024-04-23T07:00:51.055Z,562.00
2024-04-23T07:01:51.059Z,562.00
2024-04-23T07:02:51.104Z,562.00
2024-04-23T07:03:51.019Z,558.00
2024-04-23T07:04:51.056Z,558.00
2024-04-23T07:05:51.028Z,552.00
2024-04-23T07:06:51.013Z,546.00
2024-04-23T07:07:51.022Z,541.00
2024-04-23T07:08:53.556Z,541.00
2024-04-23T07:09:51.022Z,538.00
2024-04-23T07:10:51.052Z,538.00
2024-04-23T07:11:51.062Z,539.00
2024-04-23T07:12:51.033Z,535.00
2024-04-23T07:13:51.073Z,532.00
2024-04-23T07:14:51.042Z,531.00
2024-04-23T07:15:51.033Z,531.00
2024-04-23T07:16:51.088Z,532.00
2024-04-23T07:17:51.199Z,533.00
2024-04-23T07:18:56.795Z,530.00
2024-04-23T07:19:52.549Z,529.00
2024-04-23T07:20:51.050Z,529.00
2024-04-23T07:21:51.059Z,528.00
2024-04-23T07:22:51.074Z,525.00
2024-04-23T07:23:51.050Z,524.00
2024-04-23T07:24:51.054Z,525.00
2024-04-23T07:25:51.139Z,523.00
2024-04-23T07:26:51.067Z,520.00
2024-04-23T07:27:51.047Z,518.00
2024-04-23T07:28:51.122Z,518.00
2024-04-23T07:29:51.058Z,518.00
2024-04-23T07:30:51.069Z,516.00
2024-04-23T07:31:51.110Z,515.00
2024-04-23T07:32:51.112Z,514.00
2024-04-23T07:33:51.075Z,512.00
2024-04-23T07:34:51.108Z,513.00
2024-04-23T07:35:51.127Z,510.00
2024-04-23T07:36:51.095Z,507.00
2024-04-23T07:37:51.091Z,505.00
2024-04-23T07:38:51.067Z,505.00
2024-04-23T07:39:51.103Z,504.00
2024-04-23T07:40:51.115Z,504.00
2024-04-23T07:41:51.069Z,509.00
2024-04-23T07:42:51.135Z,510.00
2024-04-23T07:43:51.218Z,511.00
2024-04-23T07:44:51.079Z,513.00
2024-04-23T07:45:51.137Z,512.00
2024-04-23T07:46:51.099Z,514.00
2024-04-23T07:47:51.178Z,512.00
2024-04-23T07:48:51.077Z,608.00
2024-04-23T07:49:51.096Z,668.00
2024-04-23T07:50:51.088Z,639.00
2024-04-23T07:51:51.098Z,631.00
2024-04-23T07:52:51.160Z,631.00
2024-04-23T07:53:51.098Z,628.00
2024-04-23T07:54:51.088Z,627.00
2024-04-23T07:55:51.117Z,626.00
2024-04-23T07:56:51.092Z,611.00
2024-04-23T07:57:51.089Z,600.00
2024-04-23T07:58:51.130Z,600.00
2024-04-23T07:59:51.113Z,596.00
2024-04-23T08:00:51.117Z,592.00
2024-04-23T08:01:51.124Z,589.00
2024-04-23T08:02:51.131Z,588.00
2024-04-23T08:03:51.153Z,583.00
2024-04-23T08:04:51.124Z,585.00
2024-04-23T08:05:51.141Z,583.00
2024-04-23T08:06:51.137Z,577.00
2024-04-23T08:07:51.171Z,574.00
2024-04-23T08:08:51.148Z,572.00
2024-04-23T08:09:51.152Z,569.00
2024-04-23T08:10:51.300Z,571.00
2024-04-23T08:11:51.190Z,569.00
2024-04-23T08:12:51.246Z,568.00
2024-04-23T08:13:51.226Z,564.00
2024-04-23T08:14:51.236Z,566.00
2024-04-23T08:15:51.249Z,562.00
2024-04-23T08:16:51.395Z,557.00
2024-04-23T08:17:51.453Z,553.00
2024-04-23T08:18:51.326Z,551.00
2024-04-23T08:19:51.396Z,548.00
2024-04-23T08:20:51.342Z,546.00
2024-04-23T08:21:51.352Z,545.00
2024-04-23T08:22:51.385Z,545.00
2024-04-23T08:23:51.373Z,543.00
2024-04-23T08:24:51.376Z,543.00
2024-04-23T08:25:51.444Z,541.00
2024-04-23T08:26:51.407Z,538.00
2024-04-23T08:27:51.412Z,534.00
2024-04-23T08:28:51.511Z,530.00
2024-04-23T08:29:51.442Z,529.00
2024-04-23T08:30:51.456Z,529.00
2024-04-23T08:31:51.501Z,529.00
2024-04-23T08:32:51.563Z,528.00
2024-04-23T08:33:51.499Z,527.00
2024-04-23T08:34:51.523Z,526.00
2024-04-23T08:35:51.525Z,524.00
2024-04-23T08:36:51.531Z,523.00
2024-04-23T08:37:51.555Z,519.00
2024-04-23T08:38:51.548Z,517.00
2024-04-23T08:39:51.589Z,514.00
2024-04-23T08:40:51.581Z,511.00
2024-04-23T08:41:51.606Z,510.00
2024-04-23T08:42:51.653Z,510.00
2024-04-23T08:43:52.151Z,510.00
2024-04-23T08:44:51.794Z,510.00
2024-04-23T08:45:51.870Z,509.00
2024-04-23T08:46:52.003Z,508.00
2024-04-23T08:47:52.133Z,508.00
2024-04-23T08:48:52.054Z,510.00
2024-04-23T08:49:52.169Z,508.00
2024-04-23T08:50:52.235Z,508.00
2024-04-23T08:51:52.280Z,506.00
2024-04-23T08:52:52.398Z,505.00
2024-04-23T08:53:52.396Z,504.00
2024-04-23T08:54:52.428Z,505.00
2024-04-23T08:55:52.546Z,507.00
2024-04-23T08:56:52.554Z,506.00
2024-04-23T08:57:52.599Z,504.00
2024-04-23T08:58:52.767Z,505.00
2024-04-23T08:59:52.738Z,505.00
2024-04-23T09:00:54.007Z,504.00
2024-04-23T09:01:52.878Z,502.00
2024-04-23T09:02:52.939Z,502.00
2024-04-23T09:03:53.023Z,501.00
2024-04-23T09:04:53.036Z,502.00
2024-04-23T09:05:53.080Z,503.00
2024-04-23T09:06:53.128Z,498.00
2024-04-23T09:07:53.224Z,494.00
2024-04-23T09:08:53.248Z,495.00
2024-04-23T09:10:00.541Z,497.00
2024-04-23T09:11:00.640Z,500.00
2024-04-23T09:12:00.574Z,501.00
2024-04-23T09:13:00.529Z,497.00
2024-04-23T09:14:00.610Z,497.00
2024-04-23T09:15:01.429Z,494.00
2024-04-23T09:16:00.612Z,493.00
2024-04-23T09:17:00.685Z,492.00
2024-04-23T09:18:00.826Z,495.00
2024-04-23T09:19:00.789Z,495.00
2024-04-23T09:20:00.854Z,496.00
2024-04-23T09:21:00.909Z,496.00
2024-04-23T09:22:00.971Z,497.00
2024-04-23T09:23:01.074Z,497.00
2024-04-23T09:24:01.085Z,496.00
2024-04-23T09:25:01.156Z,494.00
2024-04-23T09:26:01.380Z,494.00
2024-04-23T09:27:01.243Z,492.00
2024-04-23T09:28:01.325Z,491.00
2024-04-23T09:29:01.414Z,491.00
2024-04-23T09:30:01.444Z,491.00
2024-04-23T09:31:01.514Z,489.00
2024-04-23T09:32:01.668Z,488.00
2024-04-23T09:33:01.742Z,487.00
2024-04-23T09:34:01.712Z,486.00
2024-04-23T09:35:01.880Z,485.00
2024-04-23T09:36:01.862Z,488.00
2024-04-23T09:37:01.915Z,488.00
2024-04-23T09:38:02.054Z,486.00
2024-04-23T09:39:02.047Z,489.00
2024-04-23T09:40:02.119Z,487.00
2024-04-23T09:41:02.248Z,488.00
2024-04-23T09:42:02.258Z,489.00
2024-04-23T09:43:02.333Z,487.00
2024-04-23T09:44:02.394Z,489.00
2024-04-23T09:45:02.466Z,487.00
2024-04-23T09:46:03.058Z,486.00
2024-04-23T09:47:02.524Z,486.00
2024-04-23T09:48:02.547Z,485.00
2024-04-23T09:49:02.554Z,485.00
2024-04-23T09:50:02.629Z,487.00
2024-04-23T09:51:02.585Z,503.00
2024-04-23T09:52:04.122Z,501.00
2024-04-23T09:53:02.675Z,503.00
2024-04-23T09:54:02.616Z,504.00
2024-04-23T09:55:02.660Z,504.00
2024-04-23T09:56:02.715Z,500.00
2024-04-23T09:57:02.587Z,500.00
2024-04-23T09:58:02.594Z,499.00
2024-04-23T09:59:02.632Z,496.00
2024-04-23T10:00:02.605Z,496.00
2024-04-23T10:01:02.666Z,494.00
2024-04-23T10:02:02.748Z,495.00
2024-04-23T10:03:02.916Z,493.00
2024-04-23T10:04:02.668Z,493.00
2024-04-23T10:05:03.081Z,494.00
2024-04-23T10:06:02.629Z,492.00
2024-04-23T10:07:02.611Z,491.00
2024-04-23T10:08:02.635Z,491.00
2024-04-23T10:09:02.610Z,491.00
2024-04-23T10:10:02.647Z,490.00
2024-04-23T10:11:02.723Z,490.00
2024-04-23T10:12:02.649Z,491.00
2024-04-23T10:13:02.615Z,492.00
2024-04-23T10:14:02.634Z,490.00
2024-04-23T10:15:02.643Z,490.00
2024-04-23T10:16:02.642Z,489.00
2024-04-23T10:17:02.705Z,489.00
2024-04-23T10:18:02.696Z,490.00
2024-04-23T10:19:02.625Z,488.00
2024-04-23T10:20:02.708Z,489.00
2024-04-23T10:21:02.638Z,488.00
2024-04-23T10:22:02.642Z,488.00
2024-04-23T10:23:02.671Z,490.00
2024-04-23T10:24:02.643Z,490.00
2024-04-23T10:25:02.633Z,488.00
2024-04-23T10:26:02.696Z,485.00
2024-04-23T10:27:02.667Z,486.00
2024-04-23T10:28:02.688Z,486.00
2024-04-23T10:29:02.684Z,486.00
2024-04-23T10:30:02.660Z,486.00
2024-04-23T10:31:02.659Z,486.00
2024-04-23T10:32:02.781Z,484.00
2024-04-23T10:33:02.797Z,488.00
2024-04-23T10:34:02.672Z,488.00
2024-04-23T10:35:02.809Z,488.00
2024-04-23T10:36:02.725Z,488.00
2024-04-23T10:37:02.666Z,489.00
2024-04-23T10:38:02.712Z,486.00
2024-04-23T10:39:02.688Z,483.00
2024-04-23T10:40:02.713Z,484.00
2024-04-23T10:41:02.990Z,487.00
2024-04-23T10:42:02.734Z,487.00
2024-04-23T10:43:02.693Z,487.00
2024-04-23T10:44:02.711Z,491.00
2024-04-23T10:45:02.698Z,494.00
2024-04-23T10:46:02.716Z,502.00
2024-04-23T10:47:02.711Z,895.00
2024-04-23T10:48:02.744Z,587.00
2024-04-23T10:49:02.688Z,540.00
2024-04-23T10:50:02.766Z,532.00
2024-04-23T10:51:02.773Z,532.00
2024-04-23T10:52:02.838Z,539.00
2024-04-23T10:53:02.954Z,549.00
2024-04-23T10:54:02.978Z,554.00
2024-04-23T10:55:03.029Z,555.00
2024-04-23T10:56:03.113Z,557.00
2024-04-23T10:57:03.146Z,559.00
2024-04-23T10:58:03.215Z,560.00
2024-04-23T10:59:03.289Z,561.00
2024-04-23T11:00:03.457Z,558.00
2024-04-23T11:01:03.593Z,553.00
2024-04-23T11:02:03.518Z,553.00
2024-04-23T11:03:03.746Z,552.00
2024-04-23T11:04:03.808Z,548.00
2024-04-23T11:05:03.949Z,550.00
2024-04-23T11:06:03.852Z,550.00
2024-04-23T11:07:03.832Z,548.00
2024-04-23T11:08:03.963Z,543.00
2024-04-23T11:09:03.952Z,542.00
2024-04-23T11:10:04.014Z,539.00
2024-04-23T11:11:04.335Z,536.00
2024-04-23T11:12:04.160Z,533.00
2024-04-23T11:13:04.233Z,533.00
2024-04-23T11:14:04.397Z,531.00
2024-04-23T11:15:04.357Z,529.00
2024-04-23T11:16:04.522Z,528.00
2024-04-23T11:17:04.553Z,529.00
2024-04-23T11:18:04.769Z,528.00
2024-04-23T11:19:04.776Z,526.00
2024-04-23T11:20:04.718Z,525.00
2024-04-23T11:21:04.843Z,523.00
2024-04-23T11:22:04.799Z,522.00
2024-04-23T11:23:04.829Z,521.00
2024-04-23T11:24:04.858Z,519.00
2024-04-23T11:25:04.856Z,517.00
2024-04-23T11:26:04.847Z,515.00
2024-04-23T11:27:04.853Z,514.00
2024-04-23T11:28:04.883Z,516.00
2024-04-23T11:29:04.926Z,516.00
2024-04-23T11:30:04.892Z,521.00
2024-04-23T11:31:04.934Z,522.00
2024-04-23T11:32:05.078Z,522.00
2024-04-23T11:33:05.037Z,524.00
2024-04-23T11:34:04.989Z,548.00
2024-04-23T11:35:05.118Z,541.00
2024-04-23T11:36:05.092Z,528.00
2024-04-23T11:37:05.145Z,533.00
2024-04-23T11:38:05.274Z,541.00
2024-04-23T11:39:05.213Z,539.00
2024-04-23T11:40:06.208Z,550.00
2024-04-23T11:41:05.323Z,552.00
2024-04-23T11:42:06.142Z,549.00
2024-04-23T11:43:05.300Z,552.00
2024-04-23T11:44:05.347Z,554.00
2024-04-23T11:45:05.335Z,551.00
2024-04-23T11:46:05.318Z,547.00
2024-04-23T11:47:05.374Z,543.00
2024-04-23T11:48:05.440Z,539.00
2024-04-23T11:49:05.332Z,541.00
2024-04-23T11:50:05.404Z,542.00
2024-04-23T11:51:10.356Z,539.00
2024-04-23T11:52:06.626Z,539.00
2024-04-23T11:53:05.531Z,537.00
2024-04-23T11:54:05.572Z,534.00
2024-04-23T11:55:05.695Z,533.00
2024-04-23T11:56:05.714Z,532.00
2024-04-23T11:57:05.776Z,533.00
2024-04-23T11:58:05.832Z,536.00
2024-04-23T11:59:05.998Z,538.00
2024-04-23T12:00:05.920Z,536.00
2024-04-23T12:01:05.968Z,537.00
2024-04-23T12:02:06.112Z,545.00
2024-04-23T12:03:06.040Z,545.00
2024-04-23T12:04:06.108Z,541.00
2024-04-23T12:05:06.394Z,538.00
2024-04-23T12:06:06.301Z,535.00
2024-04-23T12:07:06.208Z,531.00
2024-04-23T12:08:06.378Z,532.00
2024-04-23T12:09:06.368Z,533.00
2024-04-23T12:10:06.443Z,534.00
2024-04-23T12:11:06.542Z,533.00
2024-04-23T12:12:06.478Z,534.00
2024-04-23T12:13:06.537Z,552.00
2024-04-23T12:14:06.597Z,554.00
2024-04-23T12:15:06.702Z,550.00
2024-04-23T12:16:06.740Z,542.00
2024-04-23T12:17:06.892Z,540.00
2024-04-23T12:18:07.029Z,539.00
2024-04-23T12:19:06.963Z,540.00
2024-04-23T12:20:07.117Z,540.00
2024-04-23T12:21:07.082Z,542.00
2024-04-23T12:22:07.155Z,542.00
2024-04-23T12:23:07.272Z,542.00
2024-04-23T12:24:07.276Z,538.00
2024-04-23T12:25:07.363Z,538.00
2024-04-23T12:26:07.431Z,538.00
2024-04-23T12:27:07.464Z,539.00
2024-04-23T12:28:07.530Z,535.00